首页
METAR-TAF:

METAR-TAF

机场 :

里士满, 澳大利亚

纬度: 33-36S, 经度: 150-47E, 海拔: 21米

当前天气观测

该预报发布于38分钟前的01:30 UTC
静风
温度 14°C
湿度 94%
气压 1018 hPa
能见度10公里或以上
散云层高于12000英尺

METAR: YSRI 310130Z AUTO 00000KT 9999 // SCT120 14/13 Q1018 RF00.0/000.0

时间: 12:08 (02:08 UTC)

预报

该预报发布于2小时和59分钟前的23:09 UTC
预报有效从31日的 00点(UTC)到 01日的 00点(UTC)
风速8节,风向北转西北
能见度10公里或以上
1500米以下无云,无积雨云

TAF: YSRI 302309Z 3100/0100 34008KT CAVOK

超过4000个机场的气象观测和天气预报(METAR&TAF报告)。

可查询的气象台以黄色和红色小点在地图上表示。

将鼠标移到小点上方,可查看气象台名称。

然后点击查看天气观测和预报。

如需切换地图:点击带黑十字的绿色按钮放大地图;点击带横线的绿色按钮缩小地图;或者点击绿色箭头查看邻近地区的地图。


METAR-TAF: